Time;durP1;ratioP1;P1;durP2;ratioP2;P2;SDS_P1;SDS_P2;PMS_P1;PMS_P2;Temp;Humidity;BMP_temperature;BMP_pressure;BME280_temperature;BME280_humidity;BME280_pressure;Samples;Min_cycle;Max_cycle;Signal;HPM_P1;HPM_P2
2021/12/16 00:01:57;;;;;;;5.53;3.10;;;7.40;99.90;;;;;;4974429;28;20504;-89
2021/12/16 00:07:21;;;;;;;8.23;3.00;;;7.60;99.90;;;;;;5049610;28;20056;-89
2021/12/16 00:10:00;;;;;;;10.93;3.22;;;8.10;99.90;;;;;;5022764;28;20064;-89
2021/12/16 00:34:18;;;;;;;5.60;2.47;;;7.60;99.90;;;;;;5023894;28;20467;-88
2021/12/16 00:36:46;;;;;;;6.50;2.75;;;8.50;99.90;;;;;;5017988;28;20060;-89
2021/12/16 00:39:24;;;;;;;4.70;2.80;;;7.80;99.90;;;;;;5032688;28;20041;-85
2021/12/16 00:41:54;;;;;;;8.70;3.13;;;7.80;99.90;;;;;;5054482;28;20131;-89
2021/12/16 00:44:46;;;;;;;8.10;3.25;;;8.10;99.90;;;;;;5053810;28;20071;-88
2021/12/16 00:49:46;;;;;;;12.45;5.13;;;8.10;99.90;;;;;;5058706;28;20075;-89
2021/12/16 00:55:14;;;;;;;8.35;2.90;;;7.90;99.90;;;;;;5055747;28;20061;-86
2021/12/16 00:57:41;;;;;;;9.57;4.30;;;7.90;99.90;;;;;;5040026;28;20061;-90
2021/12/16 01:00:12;;;;;;;10.07;4.35;;;8.40;99.90;;;;;;5059703;28;20392;-83
2021/12/16 01:02:56;;;;;;;9.32;3.58;;;8.00;99.90;;;;;;5042686;28;20057;-88
2021/12/16 01:08:28;;;;;;;5.45;2.78;;;8.60;99.90;;;;;;5063289;28;20453;-88
2021/12/16 01:39:12;;;;;;;12.93;4.20;;;7.90;99.90;;;;;;5072699;28;20059;-87
2021/12/16 01:55:21;;;;;;;10.43;4.15;;;8.10;99.90;;;;;;4973482;28;20054;-86
2021/12/16 01:57:50;;;;;;;5.53;2.97;;;8.90;99.90;;;;;;4966037;28;20054;-87
2021/12/16 02:00:32;;;;;;;7.55;2.70;;;8.90;99.90;;;;;;4968525;28;20054;-88
2021/12/16 02:03:03;;;;;;;7.63;2.90;;;8.10;99.90;;;;;;4991525;28;20097;-86
2021/12/16 02:10:38;;;;;;;13.02;4.28;;;8.20;99.90;;;;;;4956792;28;20101;-88
2021/12/16 02:32:29;;;;;;;4.75;2.42;;;8.80;99.90;;;;;;5031679;28;20448;-85
2021/12/16 02:37:22;;;;;;;7.57;3.28;;;8.80;99.90;;;;;;5018678;28;20076;-88
2021/12/16 02:39:48;;;;;;;9.88;3.05;;;8.70;99.90;;;;;;5051573;28;20060;-88
2021/12/16 02:42:20;;;;;;;7.28;2.72;;;7.90;99.90;;;;;;5034081;28;20393;-87
2021/12/16 02:50:02;;;;;;;9.25;2.47;;;7.80;99.90;;;;;;5034534;28;20104;-88
2021/12/16 02:52:29;;;;;;;5.88;2.88;;;8.10;99.90;;;;;;5034932;28;20048;-88
2021/12/16 02:54:55;;;;;;;4.82;2.28;;;8.10;99.90;;;;;;5053197;28;20392;-88
2021/12/16 02:57:24;;;;;;;5.70;2.40;;;8.10;99.90;;;;;;5018398;28;20170;-89
2021/12/16 02:59:51;;;;;;;6.03;2.33;;;8.00;99.90;;;;;;5034937;28;20057;-89
2021/12/16 03:02:18;;;;;;;7.18;2.38;;;8.60;99.90;;;;;;5052433;28;20055;-89
2021/12/16 03:04:48;;;;;;;3.13;1.80;;;8.80;99.90;;;;;;5034536;28;20057;-90
2021/12/16 03:07:16;;;;;;;6.32;1.80;;;8.10;99.90;;;;;;5052238;28;20183;-89
2021/12/16 03:15:09;;;;;;;3.97;1.80;;;8.60;99.90;;;;;;5034468;28;20052;-87
2021/12/16 03:17:55;;;;;;;4.07;1.58;;;8.60;99.90;;;;;;5027013;28;20052;-88
2021/12/16 03:20:36;;;;;;;4.20;1.80;;;8.00;99.90;;;;;;5017918;28;20052;-89
2021/12/16 03:28:28;;;;;;;6.88;1.92;;;8.40;99.90;;;;;;5052020;28;20485;-89
2021/12/16 03:31:11;;;;;;;4.10;1.63;;;8.20;99.90;;;;;;5043982;28;20386;-89
2021/12/16 03:33:56;;;;;;;5.93;1.70;;;7.80;99.90;;;;;;5051842;28;20041;-88
2021/12/16 03:39:06;;;;;;;3.50;1.92;;;8.30;99.90;;;;;;5034872;28;20052;-89
2021/12/16 03:41:33;;;;;;;3.80;1.83;;;7.70;99.90;;;;;;5033769;28;20052;-88
2021/12/16 03:44:00;;;;;;;3.08;1.60;;;8.20;99.90;;;;;;5042251;28;20386;-89
2021/12/16 03:46:33;;;;;;;5.40;1.70;;;7.90;99.90;;;;;;5001675;28;20124;-89
2021/12/16 03:49:22;;;;;;;3.60;1.65;;;7.50;99.90;;;;;;5034244;28;20052;-88
2021/12/16 03:51:58;;;;;;;6.78;2.20;;;7.50;99.90;;;;;;5048288;28;20173;-89
2021/12/16 03:54:35;;;;;;;5.53;1.92;;;7.50;99.90;;;;;;5015647;28;20045;-88
2021/12/16 03:57:04;;;;;;;4.45;1.63;;;7.70;99.90;;;;;;4999920;28;20060;-89
2021/12/16 03:59:32;;;;;;;7.28;2.35;;;7.40;99.90;;;;;;5017160;28;20110;-89
2021/12/16 04:02:01;;;;;;;5.28;1.85;;;7.80;99.90;;;;;;5036797;28;20053;-86
2021/12/16 04:04:27;;;;;;;7.00;1.92;;;7.90;99.90;;;;;;5050353;28;20045;-87
2021/12/16 04:06:53;;;;;;;4.38;1.98;;;7.30;99.90;;;;;;5035554;28;20405;-86
2021/12/16 04:09:21;;;;;;;8.05;1.88;;;7.60;99.90;;;;;;5002328;28;20053;-86
2021/12/16 04:12:02;;;;;;;3.60;1.67;;;7.20;99.90;;;;;;5021801;28;20139;-89
2021/12/16 04:14:29;;;;;;;5.03;1.45;;;7.20;99.90;;;;;;5015598;28;20140;-87
2021/12/16 04:16:57;;;;;;;5.03;2.10;;;7.20;99.90;;;;;;5042319;28;20056;-89
2021/12/16 04:19:27;;;;;;;4.60;1.63;;;7.70;99.90;;;;;;5043423;28;20053;-89
2021/12/16 04:21:57;;;;;;;5.60;1.65;;;7.90;99.90;;;;;;5015755;28;20057;-88
2021/12/16 04:24:24;;;;;;;4.72;1.80;;;7.70;99.90;;;;;;5032287;28;20056;-87
2021/12/16 04:26:52;;;;;;;4.03;1.75;;;7.00;99.90;;;;;;5033229;28;20528;-86
2021/12/16 04:29:18;;;;;;;4.38;2.45;;;7.30;99.90;;;;;;5032976;28;20057;-89
2021/12/16 04:31:44;;;;;;;4.32;1.52;;;7.30;99.90;;;;;;5033758;28;20056;-88
2021/12/16 04:34:11;;;;;;;7.43;1.70;;;6.40;99.90;;;;;;5031792;28;20109;-88
2021/12/16 04:36:38;;;;;;;4.18;1.60;;;7.70;99.90;;;;;;5028694;28;20077;-88
2021/12/16 04:39:12;;;;;;;3.70;1.35;;;7.00;99.90;;;;;;5036947;28;20102;-88
2021/12/16 04:41:38;;;;;;;3.72;1.52;;;7.00;99.90;;;;;;5034135;28;20055;-87
2021/12/16 04:44:11;;;;;;;3.80;1.60;;;7.00;99.90;;;;;;5036367;28;20045;-88
2021/12/16 04:46:38;;;;;;;5.07;1.55;;;7.10;99.90;;;;;;5021778;28;20046;-89
2021/12/16 04:49:06;;;;;;;3.03;1.63;;;7.40;99.90;;;;;;5032029;28;20069;-88
2021/12/16 04:51:36;;;;;;;4.55;1.85;;;6.70;99.90;;;;;;5045028;28;20061;-89
2021/12/16 04:54:03;;;;;;;4.90;1.98;;;7.40;99.90;;;;;;5031891;28;20061;-88
2021/12/16 04:56:30;;;;;;;2.88;1.45;;;6.70;99.90;;;;;;5051810;28;20059;-89
2021/12/16 04:58:58;;;;;;;5.50;1.80;;;7.30;99.90;;;;;;5048415;28;20041;-88
2021/12/16 05:01:24;;;;;;;3.33;1.67;;;6.60;99.90;;;;;;5053814;28;20056;-89
2021/12/16 05:03:51;;;;;;;3.65;1.73;;;6.60;99.90;;;;;;5026655;28;20061;-89
2021/12/16 05:06:17;;;;;;;4.22;1.70;;;8.20;99.90;;;;;;5022249;28;20447;-88
2021/12/16 05:08:43;;;;;;;4.63;2.10;;;7.10;99.90;;;;;;5026866;28;20128;-89
2021/12/16 05:11:12;;;;;;;7.38;1.95;;;6.50;99.90;;;;;;5053952;28;20037;-86
2021/12/16 05:13:39;;;;;;;4.00;1.48;;;7.00;99.90;;;;;;5036490;28;20596;-85
2021/12/16 05:16:06;;;;;;;3.53;1.85;;;6.20;99.90;;;;;;5033400;28;20053;-89
2021/12/16 05:18:35;;;;;;;5.28;1.88;;;6.70;99.90;;;;;;5036577;28;20045;-89
2021/12/16 05:21:07;;;;;;;4.22;1.67;;;7.10;99.90;;;;;;5019717;28;20627;-88
2021/12/16 05:26:21;;;;;;;3.65;1.80;;;7.10;99.90;;;;;;5023887;28;20057;-89
2021/12/16 05:28:54;;;;;;;3.42;1.70;;;6.60;99.90;;;;;;5017170;28;20045;-88
2021/12/16 05:31:23;;;;;;;5.05;1.90;;;6.30;99.90;;;;;;5047224;28;20190;-88
2021/12/16 05:33:50;;;;;;;4.18;1.95;;;6.50;99.90;;;;;;5036223;28;20417;-89
2021/12/16 05:36:16;;;;;;;5.53;1.60;;;6.10;99.90;;;;;;5001091;28;20108;-89
2021/12/16 05:38:42;;;;;;;5.75;2.20;;;6.50;99.90;;;;;;5022419;28;20108;-88
2021/12/16 05:41:11;;;;;;;3.35;2.25;;;7.10;99.90;;;;;;5034630;28;20041;-87
2021/12/16 05:43:38;;;;;;;3.55;1.75;;;6.90;99.90;;;;;;5049156;28;20068;-88
2021/12/16 05:46:05;;;;;;;3.92;1.90;;;6.70;99.90;;;;;;5054028;28;20045;-88
2021/12/16 05:48:34;;;;;;;5.97;2.10;;;6.30;99.90;;;;;;5036429;28;20047;-89
2021/12/16 05:51:05;;;;;;;6.78;2.20;;;6.50;99.90;;;;;;5036741;28;20378;-89
2021/12/16 05:53:31;;;;;;;4.32;1.85;;;6.20;99.90;;;;;;5036319;28;20052;-89
2021/12/16 05:55:57;;;;;;;4.50;1.98;;;6.00;99.90;;;;;;5048431;28;20552;-87
2021/12/16 05:58:23;;;;;;;4.45;2.00;;;6.20;99.90;;;;;;5039086;28;20076;-86
2021/12/16 06:00:54;;;;;;;4.32;2.20;;;6.80;99.90;;;;;;5054020;28;20088;-90
2021/12/16 06:03:21;;;;;;;5.57;2.53;;;6.10;99.90;;;;;;5053865;28;20455;-87
2021/12/16 06:05:48;;;;;;;4.80;2.53;;;6.50;99.90;;;;;;5053215;28;20060;-87
2021/12/16 06:08:14;;;;;;;2.53;1.52;;;6.10;99.90;;;;;;5053519;28;20595;-89
2021/12/16 06:13:07;;;;;;;6.65;2.10;;;6.10;99.90;;;;;;5036357;28;20051;-89
2021/12/16 06:29:27;;;;;;;6.70;3.15;;;6.90;99.90;;;;;;5030533;28;20119;-87
2021/12/16 06:31:53;;;;;;;4.57;2.15;;;6.20;99.90;;;;;;5035849;28;20128;-86
2021/12/16 06:34:19;;;;;;;5.00;2.00;;;6.20;99.90;;;;;;5045096;28;20128;-86
2021/12/16 06:36:46;;;;;;;4.68;1.95;;;6.90;99.90;;;;;;5054288;28;20052;-89
2021/12/16 06:39:12;;;;;;;6.32;1.35;;;6.50;99.90;;;;;;5052930;28;20087;-90
2021/12/16 06:41:38;;;;;;;5.50;2.05;;;6.00;99.90;;;;;;5052995;28;20056;-89
2021/12/16 06:44:14;;;;;;;4.97;2.08;;;6.30;99.90;;;;;;5034433;28;20049;-88
2021/12/16 06:46:43;;;;;;;3.75;1.63;;;7.00;99.90;;;;;;5039469;28;20425;-89
2021/12/16 06:49:11;;;;;;;2.83;1.90;;;6.90;99.90;;;;;;5034179;28;20037;-87
2021/12/16 06:51:47;;;;;;;5.47;2.13;;;6.30;99.90;;;;;;5015735;28;20449;-87
2021/12/16 06:54:21;;;;;;;5.60;1.80;;;6.20;99.90;;;;;;5033349;28;20061;-89
2021/12/16 06:57:02;;;;;;;6.47;2.33;;;6.50;99.90;;;;;;5045283;28;20111;-90
2021/12/16 06:59:33;;;;;;;4.20;2.38;;;6.90;99.90;;;;;;5012627;28;20058;-88
2021/12/16 07:02:16;;;;;;;3.97;1.80;;;5.50;99.90;;;;;;5020604;28;20136;-89
2021/12/16 07:04:43;;;;;;;3.97;1.55;;;6.30;99.90;;;;;;5007210;28;20144;-88
2021/12/16 07:07:11;;;;;;;6.05;2.10;;;6.90;99.90;;;;;;5033274;28;20465;-88
2021/12/16 07:09:37;;;;;;;8.30;2.38;;;6.40;99.90;;;;;;5041677;28;20515;-88
2021/12/16 07:12:05;;;;;;;4.30;2.28;;;6.30;99.90;;;;;;5038482;28;20120;-89
2021/12/16 07:14:39;;;;;;;6.50;3.05;;;6.40;99.90;;;;;;5033509;28;20041;-88
2021/12/16 07:17:11;;;;;;;10.38;3.08;;;6.30;99.90;;;;;;5034460;28;20531;-87
2021/12/16 07:19:39;;;;;;;10.07;3.25;;;7.20;99.90;;;;;;5050889;28;20052;-88
2021/12/16 07:22:07;;;;;;;12.82;4.45;;;6.40;99.90;;;;;;5052265;28;20081;-88
2021/12/16 07:24:32;;;;;;;5.43;3.50;;;6.80;99.90;;;;;;5034653;28;20397;-93
2021/12/16 07:26:58;;;;;;;5.72;2.97;;;7.20;99.90;;;;;;5036953;28;20049;-86
2021/12/16 07:29:25;;;;;;;5.45;2.63;;;7.10;99.90;;;;;;5018039;28;20049;-90
2021/12/16 07:31:51;;;;;;;4.63;2.63;;;6.90;99.90;;;;;;5024669;28;20128;-92
2021/12/16 07:34:19;;;;;;;5.07;1.92;;;6.00;99.90;;;;;;5000410;28;20147;-90
2021/12/16 07:36:45;;;;;;;3.13;1.70;;;6.60;99.90;;;;;;5014621;28;20085;-89
2021/12/16 07:39:14;;;;;;;5.13;2.60;;;6.70;99.90;;;;;;5034595;28;20087;-90
2021/12/16 07:41:43;;;;;;;6.18;2.90;;;6.30;99.90;;;;;;5050825;28;20142;-90
2021/12/16 07:44:09;;;;;;;9.02;2.63;;;6.50;99.90;;;;;;5050235;28;20172;-85
2021/12/16 07:46:47;;;;;;;4.75;2.70;;;6.50;99.90;;;;;;5016072;28;20053;-84
2021/12/16 07:49:19;;;;;;;5.55;2.65;;;7.10;99.90;;;;;;5032211;28;20045;-85
2021/12/16 07:51:46;;;;;;;3.60;1.90;;;6.10;99.90;;;;;;5040694;28;20041;-90
2021/12/16 07:54:14;;;;;;;7.65;2.70;;;7.00;99.90;;;;;;5049613;28;20094;-84
2021/12/16 07:56:41;;;;;;;5.25;1.88;;;6.50;99.90;;;;;;5043862;28;20059;-83
2021/12/16 07:59:08;;;;;;;3.88;1.90;;;6.40;99.90;;;;;;5044537;28;20124;-88
2021/12/16 08:01:35;;;;;;;4.45;2.40;;;6.10;99.90;;;;;;5014881;28;20355;-89
2021/12/16 08:04:01;;;;;;;6.82;2.05;;;6.40;99.90;;;;;;5032463;28;20054;-90
2021/12/16 08:06:29;;;;;;;2.90;1.88;;;6.30;99.90;;;;;;5032461;28;20053;-88
2021/12/16 08:09:03;;;;;;;5.95;2.65;;;6.70;99.90;;;;;;5036474;28;20471;-88
2021/12/16 08:11:33;;;;;;;7.20;2.13;;;6.20;99.90;;;;;;5051292;28;20055;-87
2021/12/16 08:14:00;;;;;;;4.00;2.00;;;6.50;99.90;;;;;;5051696;28;20091;-86
2021/12/16 08:16:25;;;;;;;5.55;2.67;;;6.10;99.90;;;;;;5026696;28;20053;-88
2021/12/16 08:18:53;;;;;;;5.88;2.80;;;6.70;99.90;;;;;;5015929;28;20048;-89
2021/12/16 08:21:23;;;;;;;6.00;2.47;;;6.10;99.90;;;;;;5016219;28;20155;-90
2021/12/16 08:23:50;;;;;;;7.38;2.97;;;6.70;99.90;;;;;;5038069;28;20041;-85
2021/12/16 08:26:16;;;;;;;6.03;2.65;;;6.10;99.90;;;;;;5041876;28;20054;-85
2021/12/16 08:28:43;;;;;;;3.80;2.00;;;6.40;99.90;;;;;;5032408;28;20082;-87
2021/12/16 08:31:10;;;;;;;5.22;2.60;;;6.00;99.90;;;;;;5034031;28;20060;-88
2021/12/16 08:33:37;;;;;;;4.78;2.28;;;6.80;99.90;;;;;;5037185;28;20061;-86
2021/12/16 08:36:04;;;;;;;4.45;2.47;;;6.10;99.90;;;;;;5040189;28;20048;-88
2021/12/16 08:38:31;;;;;;;4.70;2.40;;;6.10;99.90;;;;;;5020932;28;20057;-86
2021/12/16 08:41:01;;;;;;;4.88;2.40;;;6.10;99.90;;;;;;5054914;28;20040;-86
2021/12/16 08:43:27;;;;;;;3.70;1.80;;;6.10;99.90;;;;;;5048840;28;20519;-86
2021/12/16 08:45:54;;;;;;;3.72;2.10;;;6.20;99.90;;;;;;5037323;28;20059;-87
2021/12/16 08:48:20;;;;;;;4.07;1.90;;;6.80;99.90;;;;;;5056746;28;20056;-87
2021/12/16 08:50:48;;;;;;;3.80;1.92;;;6.70;99.90;;;;;;5055881;28;20463;-87
2021/12/16 08:53:16;;;;;;;4.90;2.38;;;6.20;99.90;;;;;;5030934;28;20053;-88
2021/12/16 08:55:45;;;;;;;4.93;1.88;;;6.20;99.90;;;;;;5050205;28;20107;-90
2021/12/16 08:58:11;;;;;;;5.07;2.30;;;6.20;99.90;;;;;;5038304;28;20057;-89
2021/12/16 09:00:42;;;;;;;5.07;2.30;;;6.20;99.90;;;;;;5035963;28;20120;-84
2021/12/16 09:03:08;;;;;;;6.50;3.30;;;6.60;99.90;;;;;;5035540;28;20053;-83
2021/12/16 09:05:34;;;;;;;4.63;2.72;;;6.80;99.90;;;;;;5035414;28;20060;-83
2021/12/16 09:08:00;;;;;;;5.38;2.65;;;6.30;99.90;;;;;;5043454;28;20045;-83
2021/12/16 09:10:30;;;;;;;6.15;3.33;;;6.30;99.90;;;;;;5046555;28;20071;-82
2021/12/16 09:15:27;;;;;;;7.32;2.58;;;7.00;99.90;;;;;;5054496;28;20524;-88
2021/12/16 09:17:53;;;;;;;4.78;2.17;;;7.20;99.90;;;;;;5028837;28;20048;-87
2021/12/16 09:20:20;;;;;;;6.32;2.50;;;6.30;99.90;;;;;;5036381;28;20049;-88
2021/12/16 09:22:47;;;;;;;4.20;2.17;;;7.20;99.90;;;;;;5054315;28;20049;-85
2021/12/16 09:25:13;;;;;;;6.18;2.70;;;6.40;99.90;;;;;;5036160;28;20048;-86
2021/12/16 09:27:41;;;;;;;6.68;2.47;;;6.40;99.90;;;;;;5036488;28;20481;-86
2021/12/16 09:30:09;;;;;;;5.65;2.03;;;6.50;99.90;;;;;;5054397;28;20055;-81
2021/12/16 09:32:36;;;;;;;8.30;3.78;;;6.50;99.90;;;;;;5043092;28;20057;-83
2021/12/16 09:35:03;;;;;;;4.68;2.30;;;7.00;99.90;;;;;;5034735;28;20038;-83
2021/12/16 09:37:29;;;;;;;4.50;2.20;;;6.60;99.90;;;;;;5052248;28;20533;-81
2021/12/16 09:39:56;;;;;;;7.78;2.50;;;7.40;99.90;;;;;;5054157;28;20056;-84
2021/12/16 09:42:23;;;;;;;6.25;3.28;;;6.70;99.90;;;;;;5051312;28;20409;-83
2021/12/16 09:44:49;;;;;;;5.65;3.10;;;6.80;99.90;;;;;;5024368;28;20083;-85
2021/12/16 09:47:15;;;;;;;8.38;3.58;;;6.90;99.90;;;;;;5031347;28;20102;-84
2021/12/16 09:49:41;;;;;;;5.95;2.63;;;6.90;99.90;;;;;;5053754;28;20044;-82
2021/12/16 09:52:10;;;;;;;4.43;2.42;;;7.50;99.90;;;;;;5036190;28;20057;-84
2021/12/16 09:54:43;;;;;;;4.65;2.20;;;7.40;99.90;;;;;;5035009;28;20456;-83
2021/12/16 09:57:11;;;;;;;3.97;2.25;;;7.00;99.90;;;;;;5035715;28;20060;-84
2021/12/16 09:59:37;;;;;;;5.55;2.50;;;7.60;99.90;;;;;;5035617;28;20053;-84
2021/12/16 10:02:12;;;;;;;13.05;6.50;;;7.10;99.90;;;;;;5053735;28;20049;-89
2021/12/16 10:04:38;;;;;;;9.80;3.85;;;7.20;99.90;;;;;;5040945;28;20053;-85
2021/12/16 10:07:14;;;;;;;8.65;4.47;;;7.30;99.90;;;;;;5051844;28;20037;-84
2021/12/16 10:09:41;;;;;;;6.45;3.03;;;7.30;99.90;;;;;;5049164;28;20125;-84
2021/12/16 10:12:14;;;;;;;9.13;3.90;;;7.30;99.90;;;;;;5035527;28;20060;-81
2021/12/16 10:15:06;;;;;;;6.88;3.83;;;7.30;99.90;;;;;;5052551;28;20053;-82
2021/12/16 10:17:40;;;;;;;6.85;3.30;;;7.40;99.90;;;;;;5033992;28;20058;-80
2021/12/16 10:20:22;;;;;;;7.05;4.50;;;8.00;99.90;;;;;;5041833;28;20088;-83
2021/12/16 10:22:50;;;;;;;6.30;2.92;;;7.50;99.90;;;;;;5001706;28;20057;-85
2021/12/16 10:25:18;;;;;;;5.15;2.97;;;8.00;99.90;;;;;;5038350;28;20041;-81
2021/12/16 10:28:05;;;;;;;5.18;2.50;;;7.50;99.90;;;;;;5053003;28;20056;-85
2021/12/16 10:30:50;;;;;;;6.60;3.15;;;7.60;99.90;;;;;;5035384;28;20102;-82
2021/12/16 10:33:25;;;;;;;5.85;2.80;;;7.60;99.90;;;;;;5022733;28;20608;-84
2021/12/16 10:36:15;;;;;;;6.88;3.05;;;7.70;99.90;;;;;;5023015;28;20057;-86
2021/12/16 10:38:55;;;;;;;3.88;2.05;;;7.70;99.90;;;;;;5037228;28;20055;-82
2021/12/16 10:41:36;;;;;;;8.95;2.75;;;7.80;99.90;;;;;;5041813;28;20054;-83
2021/12/16 10:44:14;;;;;;;6.65;3.35;;;7.80;99.90;;;;;;5047946;28;20390;-79
2021/12/16 10:46:50;;;;;;;5.63;2.97;;;7.80;99.90;;;;;;5049066;28;20509;-80
2021/12/16 10:49:20;;;;;;;5.22;3.22;;;7.80;99.90;;;;;;5037849;28;20057;-83
2021/12/16 10:51:55;;;;;;;5.30;2.80;;;8.10;99.90;;;;;;5032189;28;20064;-86
2021/12/16 10:54:25;;;;;;;5.40;2.90;;;7.90;99.90;;;;;;5032975;28;20389;-81
2021/12/16 10:57:18;;;;;;;4.43;2.90;;;8.20;99.90;;;;;;5037266;28;20053;-87
2021/12/16 11:00:02;;;;;;;6.90;4.25;;;7.90;99.90;;;;;;5043221;28;20051;-88
2021/12/16 11:02:32;;;;;;;5.38;2.78;;;8.00;99.90;;;;;;5049138;28;20073;-86
2021/12/16 11:05:11;;;;;;;5.50;2.70;;;8.00;99.90;;;;;;5035100;28;20128;-90
2021/12/16 11:07:43;;;;;;;5.13;2.70;;;8.00;99.90;;;;;;5050890;28;20061;-86
2021/12/16 11:10:19;;;;;;;4.88;3.00;;;8.00;99.90;;;;;;5045730;28;20111;-88
2021/12/16 11:12:54;;;;;;;4.93;2.78;;;8.00;99.90;;;;;;5049490;28;20073;-88
2021/12/16 11:15:19;;;;;;;3.88;2.08;;;8.10;99.90;;;;;;5038383;28;20045;-87
2021/12/16 11:18:08;;;;;;;4.97;2.70;;;8.10;99.90;;;;;;5039797;28;20564;-89
2021/12/16 11:20:38;;;;;;;4.53;2.33;;;8.10;99.90;;;;;;5031846;28;20115;-83
2021/12/16 11:23:07;;;;;;;4.75;2.97;;;8.10;99.90;;;;;;5036553;28;20493;-84
2021/12/16 11:25:42;;;;;;;4.40;2.47;;;8.70;99.90;;;;;;5045130;28;20394;-81
2021/12/16 11:28:20;;;;;;;5.40;2.92;;;8.20;99.90;;;;;;5045059;28;20488;-82
2021/12/16 11:30:50;;;;;;;4.63;2.60;;;8.20;99.90;;;;;;5051855;28;20045;-80
2021/12/16 11:33:32;;;;;;;3.38;1.98;;;8.20;99.90;;;;;;5052054;28;20080;-81
2021/12/16 11:36:21;;;;;;;5.20;2.78;;;8.20;99.90;;;;;;5041617;28;20049;-83
2021/12/16 11:39:18;;;;;;;4.95;2.88;;;8.70;99.90;;;;;;5032745;28;20050;-81
2021/12/16 11:41:59;;;;;;;7.18;3.92;;;8.30;99.90;;;;;;5031406;28;20076;-82
2021/12/16 11:44:34;;;;;;;6.07;3.83;;;8.30;99.90;;;;;;5031092;28;20057;-81
2021/12/16 11:47:17;;;;;;;6.07;3.47;;;8.50;99.90;;;;;;5053640;28;20045;-82
2021/12/16 11:49:51;;;;;;;5.75;3.10;;;8.30;99.90;;;;;;5072328;28;20049;-85
2021/12/16 11:52:28;;;;;;;5.97;3.08;;;8.70;99.90;;;;;;5070900;28;20101;-81
2021/12/16 11:55:05;;;;;;;5.57;3.20;;;8.30;99.90;;;;;;5054068;28;20558;-80
2021/12/16 11:57:54;;;;;;;4.10;2.58;;;8.30;99.90;;;;;;5071218;28;20117;-83
2021/12/16 12:00:26;;;;;;;5.38;2.80;;;8.90;99.90;;;;;;5070555;28;20434;-82
2021/12/16 12:02:55;;;;;;;6.90;4.25;;;8.90;99.90;;;;;;5072092;28;20562;-82
2021/12/16 12:05:31;;;;;;;5.28;3.33;;;8.80;99.90;;;;;;5074456;28;20049;-80
2021/12/16 12:08:03;;;;;;;5.93;3.72;;;8.40;99.90;;;;;;5076482;28;20420;-84
2021/12/16 12:10:53;;;;;;;6.82;3.80;;;8.40;99.90;;;;;;5072080;28;20115;-80
2021/12/16 12:13:26;;;;;;;6.70;3.50;;;8.40;99.90;;;;;;5075349;28;20062;-82
2021/12/16 12:16:12;;;;;;;7.15;3.78;;;8.70;99.90;;;;;;5075475;28;20048;-81
2021/12/16 12:18:48;;;;;;;6.55;3.20;;;8.40;99.90;;;;;;5058182;28;20044;-80
2021/12/16 12:21:34;;;;;;;6.80;3.20;;;8.50;99.90;;;;;;5075475;28;20072;-80
2021/12/16 12:24:05;;;;;;;5.65;3.03;;;8.40;99.90;;;;;;5055148;28;20044;-80
2021/12/16 12:26:35;;;;;;;7.20;3.83;;;8.40;99.90;;;;;;5056058;28;20044;-81
2021/12/16 12:29:09;;;;;;;6.57;3.28;;;8.40;99.90;;;;;;5057139;28;20045;-81
2021/12/16 12:31:43;;;;;;;5.82;2.60;;;8.60;99.90;;;;;;5074740;28;20507;-85
2021/12/16 12:34:10;;;;;;;4.45;2.42;;;8.60;99.90;;;;;;5056410;28;20040;-81
2021/12/16 12:36:36;;;;;;;7.78;4.25;;;8.50;99.90;;;;;;5056703;28;20522;-81
2021/12/16 12:39:08;;;;;;;7.68;3.85;;;8.50;99.90;;;;;;5074501;28;20511;-81
2021/12/16 12:41:34;;;;;;;6.40;3.60;;;8.50;99.90;;;;;;5067324;28;20048;-81
2021/12/16 12:44:04;;;;;;;6.97;3.53;;;8.50;99.90;;;;;;5038767;28;20184;-79
2021/12/16 12:46:34;;;;;;;6.55;3.25;;;8.80;99.90;;;;;;5039309;28;20409;-81
2021/12/16 12:49:06;;;;;;;5.43;3.00;;;8.50;99.90;;;;;;5037044;28;20131;-80
2021/12/16 12:51:42;;;;;;;7.68;3.75;;;8.60;99.90;;;;;;5050910;28;20417;-81
2021/12/16 12:54:27;;;;;;;7.82;3.75;;;8.50;99.90;;;;;;5042430;28;20037;-80
2021/12/16 12:56:57;;;;;;;6.70;3.40;;;8.50;99.90;;;;;;5047746;28;20409;-81
2021/12/16 12:59:34;;;;;;;6.82;3.55;;;9.00;99.90;;;;;;5052802;28;20172;-80
2021/12/16 13:02:00;;;;;;;6.72;3.58;;;8.60;99.90;;;;;;5039117;28;20050;-80
2021/12/16 13:04:41;;;;;;;9.35;4.38;;;8.90;99.90;;;;;;5042994;28;20132;-79
2021/12/16 13:07:12;;;;;;;9.00;4.15;;;8.60;99.90;;;;;;5051771;28;20110;-81
2021/12/16 13:09:53;;;;;;;7.47;3.45;;;8.60;99.90;;;;;;5052650;28;20060;-79
2021/12/16 13:12:55;;;;;;;6.38;2.97;;;8.80;99.90;;;;;;5038308;28;20061;-80
2021/12/16 13:15:32;;;;;;;7.70;4.22;;;8.60;99.90;;;;;;5035284;28;20176;-80
2021/12/16 13:23:31;;;;;;;9.20;3.78;;;9.00;99.90;;;;;;5053967;28;20056;-81
2021/12/16 13:32:21;;;;;;;8.20;3.72;;;8.70;99.90;;;;;;4935522;29;20079;-85
2021/12/16 13:35:23;;;;;;;7.10;2.75;;;8.70;99.90;;;;;;4917097;29;20428;-81
2021/12/16 13:37:56;;;;;;;8.25;3.58;;;8.60;99.90;;;;;;4911538;29;20150;-80
2021/12/16 13:40:25;;;;;;;10.63;3.72;;;9.20;99.90;;;;;;4919432;29;20063;-81
2021/12/16 13:42:56;;;;;;;12.35;5.53;;;8.70;99.90;;;;;;4935143;29;20055;-79
2021/12/16 13:46:00;;;;;;;9.48;4.05;;;8.70;99.90;;;;;;4919281;29;20126;-78
2021/12/16 14:05:43;;;;;;;7.68;3.28;;;9.30;99.90;;;;;;4957311;28;20054;-87
2021/12/16 14:08:29;;;;;;;9.13;3.92;;;8.90;99.90;;;;;;5008025;28;20050;-81
2021/12/16 14:10:58;;;;;;;7.45;3.40;;;8.90;99.90;;;;;;5042724;28;20457;-80
2021/12/16 14:31:07;;;;;;;8.10;2.60;;;9.00;99.90;;;;;;5035840;28;20081;-81
2021/12/16 14:39:29;;;;;;;8.35;3.83;;;9.10;99.90;;;;;;4972774;28;20046;-80
2021/12/16 14:47:28;;;;;;;8.45;3.60;;;9.00;99.90;;;;;;4976352;28;20125;-81
2021/12/16 14:49:55;;;;;;;8.00;3.72;;;8.90;99.90;;;;;;4991799;28;20057;-80
2021/12/16 14:52:28;;;;;;;8.95;3.72;;;8.90;99.90;;;;;;4991810;28;20117;-81
2021/12/16 14:54:59;;;;;;;6.82;3.25;;;8.90;99.90;;;;;;4991954;28;20050;-81
2021/12/16 14:57:32;;;;;;;14.32;4.70;;;8.90;99.90;;;;;;4976040;28;20470;-80
2021/12/16 15:00:06;;;;;;;21.92;4.75;;;9.00;99.90;;;;;;4992147;28;20057;-79
2021/12/16 15:02:34;;;;;;;10.07;3.97;;;9.00;99.90;;;;;;4991840;28;20537;-82
2021/12/16 15:04:59;;;;;;;14.18;5.75;;;9.00;99.90;;;;;;4975622;28;20137;-82
2021/12/16 15:07:27;;;;;;;9.93;4.05;;;9.30;99.90;;;;;;4991740;28;20129;-84
2021/12/16 15:09:55;;;;;;;10.73;4.63;;;8.90;99.90;;;;;;4975745;28;20400;-80
2021/12/16 15:12:41;;;;;;;7.57;3.15;;;8.90;99.90;;;;;;4975431;28;20050;-82
2021/12/16 15:15:27;;;;;;;7.53;2.85;;;8.90;99.90;;;;;;4981283;28;20076;-81
2021/12/16 15:45:17;;;;;;;9.35;3.75;;;8.70;99.90;;;;;;5023071;28;20064;-81
2021/12/16 15:47:53;;;;;;;10.48;3.85;;;8.70;99.90;;;;;;5034018;28;20036;-84
2021/12/16 15:50:27;;;;;;;8.77;3.72;;;8.70;99.90;;;;;;5026168;28;20057;-80
2021/12/16 15:52:54;;;;;;;12.57;4.28;;;8.70;99.90;;;;;;5023423;28;20127;-79
2021/12/16 15:55:34;;;;;;;8.68;3.58;;;8.70;99.90;;;;;;5043218;28;20045;-91
2021/12/16 15:58:08;;;;;;;8.77;3.83;;;8.70;99.90;;;;;;5051174;28;20053;-82
2021/12/16 16:00:38;;;;;;;14.93;5.65;;;8.70;99.90;;;;;;5044067;28;20041;-87
2021/12/16 16:03:05;;;;;;;12.98;5.38;;;8.70;99.90;;;;;;5026646;28;20045;-86
2021/12/16 16:05:38;;;;;;;12.18;4.95;;;8.80;99.90;;;;;;5029489;28;20057;-86
2021/12/16 16:08:07;;;;;;;10.18;4.75;;;9.40;99.90;;;;;;5051336;28;20055;-86
2021/12/16 16:10:33;;;;;;;9.68;4.07;;;8.70;99.90;;;;;;5029648;28;20397;-87
2021/12/16 16:13:16;;;;;;;11.88;4.28;;;9.20;99.90;;;;;;5045537;28;20084;-87
2021/12/16 16:15:45;;;;;;;9.93;4.22;;;8.70;99.90;;;;;;5028454;28;20160;-85
2021/12/16 16:21:19;;;;;;;14.90;6.13;;;8.90;99.90;;;;;;5039957;28;20050;-89
2021/12/16 16:23:47;;;;;;;15.20;6.05;;;8.60;99.90;;;;;;5027556;28;20064;-88
2021/12/16 16:26:15;;;;;;;15.90;7.30;;;8.70;99.90;;;;;;5051305;28;20095;-86
2021/12/16 16:28:44;;;;;;;12.63;4.90;;;8.70;99.90;;;;;;5031889;28;20071;-83
2021/12/16 16:31:15;;;;;;;15.55;7.32;;;8.70;99.90;;;;;;5048292;28;20095;-82
2021/12/16 16:33:41;;;;;;;13.52;6.10;;;8.70;99.90;;;;;;5042686;28;20052;-87
2021/12/16 16:36:11;;;;;;;11.73;5.00;;;8.80;99.90;;;;;;5050669;28;20404;-87
2021/12/16 16:38:44;;;;;;;15.98;6.25;;;8.70;99.90;;;;;;5042339;28;20080;-86
2021/12/16 16:41:13;;;;;;;10.95;5.00;;;9.10;99.90;;;;;;5033096;28;20053;-86
2021/12/16 16:43:48;;;;;;;13.05;5.00;;;8.60;99.90;;;;;;5026760;28;20088;-85
2021/12/16 16:46:25;;;;;;;10.87;4.73;;;9.20;99.90;;;;;;5041313;28;20442;-85
2021/12/16 16:51:46;;;;;;;8.27;3.90;;;8.60;99.90;;;;;;5040419;28;20045;-87
2021/12/16 16:54:27;;;;;;;11.40;3.95;;;8.60;99.90;;;;;;5048482;28;20049;-81
2021/12/16 16:57:04;;;;;;;11.75;4.82;;;8.60;99.90;;;;;;5054099;28;20053;-90
2021/12/16 16:59:53;;;;;;;10.23;3.65;;;8.60;99.90;;;;;;5046125;28;20088;-86
2021/12/16 17:02:18;;;;;;;7.30;3.50;;;8.60;99.90;;;;;;5046544;28;20446;-89
2021/12/16 17:04:46;;;;;;;8.35;3.58;;;9.00;99.90;;;;;;5054064;28;20132;-87
2021/12/16 17:07:13;;;;;;;7.75;3.08;;;8.50;99.90;;;;;;5053407;28;20130;-87
2021/12/16 17:09:40;;;;;;;8.07;4.10;;;8.80;99.90;;;;;;5044805;28;20088;-87
2021/12/16 17:12:11;;;;;;;12.40;4.88;;;8.60;99.90;;;;;;5042987;28;20053;-85